Airfield :
LOGIN :

Register | Disclaimer

   EN    FR    IT 

 










Legend :    VFR   Marginal VFR   IFR   Intensive IFR   Very Intensive IFR
Visi :
Ceiling :
>= 8 km
>= 3000ft
5 to 8 km
1000 to 3000 ft
1500m to 5 km
500 to 1000 ft
800 to 1500m
200 to 500 ft
< 800m
< 200 ft
Symbols :   Thunderstorms  Fog  Heavy snow  Heavy precipitations  Wind > 20 kt
SIGMETs :     Misc.  Thunderstorms  Icing  Turbulence  Mountain Waves  Volcanic Ashes







- Airport Elevation : 1906 ft
- IATA code : INN


LOWI - Innsbruck

CURRENT METAR :
  • 210850Z 26007KT 220V290 9999 FEW060 19/09 Q1015 NOSIG

EXPIRED METARs :
  • 210820Z 26008KT 220V280 9999 FEW060 18/09 Q1015 NOSIG
  • 210750Z 27009KT 9999 FEW060 17/10 Q1016 NOSIG
  • 210720Z 27009KT 9999 FEW050 15/10 Q1016 NOSIG
  • 210650Z 27008KT 9999 FEW050 14/10 Q1017 NOSIG
  • 210620Z 28007KT 9999 FEW050 12/10 Q1017 NOSIG
  • 210550Z 26004KT 200V300 9999 FEW010 11/09 Q1017 NOSIG

TAF TAF LOWI
Valid from the 21 at 06:00 until the 22 at 06:00 UTC


210515Z 2106/2206 27005KT 9999 FEW050 TX25/2114Z TN11/2204Z
BECMG 2108/2110 12010G20KT
PROB30 2113/2118 VRB15G25KT TSRA FEW050CB BKN070
BECMG 2118/2120 27005KT
No reported NOTAMs for that airfield.



MET'MAP, your aeronautical weather chart ! - Copyright ORBIFLY December 2007 - Disclaimer

ORBIFLY MET'MAP TEAM :

Programming & Development : Alexandra Zaïnal
Concept & Development : Baudouin d'Aumeries
Co-Development & Prog : Marc-Olivier Méhu
Technical & hardware support : Manuel Goepfert

Contact : metmap@orbifly.com




SOURCES & CREDITS :

   NOAA